Dresden, Germany
Current Conditions -  °F | °C
As of 4:20 PM on Wednesday 26 Nov 2014 (Local Time) from EDDC Reporting Station
Broken Clouds Broken Clouds  
Wind Chill: 31°   Ceiling: 1800
Heat Index: 37°   Visibility: 6mi
Dew Point: 30°   Wind: 9mph
Humidity: 75%   Direction: 140°SE
Pressure: 30.15"   Gusts: NA
Location:  51.05°N, 13.73°E
Report Text: EDDC 261520Z 14008KT 9999 BKN018 03/M01 Q1021 NOSIG
Loading
Personal Weather Stations






























Interactive Weather Map New forecast layout! Learn more

10-Day Weather Forecast

Advertisements
Track Severe Weather on mobile